sensor_id;sensor_type;location;lat;lon;timestamp;pressure;altitude;pressure_sealevel;temperature;humidity
55217;BME280;41086;46.736;15.666;2024-02-15T00:01:00;99154.31;;;4.09;100.00
55217;BME280;41086;46.736;15.666;2024-02-15T00:03:27;99165.66;;;4.10;100.00
55217;BME280;41086;46.736;15.666;2024-02-15T00:05:54;99170.72;;;4.16;100.00
55217;BME280;41086;46.736;15.666;2024-02-15T00:08:20;99170.44;;;4.25;100.00
55217;BME280;41086;46.736;15.666;2024-02-15T00:10:47;99168.88;;;4.19;100.00
55217;BME280;41086;46.736;15.666;2024-02-15T00:13:14;99176.84;;;3.59;100.00
55217;BME280;41086;46.736;15.666;2024-02-15T00:15:41;99168.47;;;3.15;100.00
55217;BME280;41086;46.736;15.666;2024-02-15T00:18:08;99172.56;;;2.92;100.00
55217;BME280;41086;46.736;15.666;2024-02-15T00:20:35;99176.69;;;2.68;100.00
55217;BME280;41086;46.736;15.666;2024-02-15T00:23:02;99172.91;;;2.80;100.00
55217;BME280;41086;46.736;15.666;2024-02-15T00:25:29;99176.38;;;2.80;100.00
55217;BME280;41086;46.736;15.666;2024-02-15T00:27:57;99183.28;;;2.83;100.00
55217;BME280;41086;46.736;15.666;2024-02-15T00:30:24;99195.09;;;2.98;100.00
55217;BME280;41086;46.736;15.666;2024-02-15T00:32:50;99192.47;;;2.99;100.00
55217;BME280;41086;46.736;15.666;2024-02-15T00:35:18;99196.03;;;2.97;100.00
55217;BME280;41086;46.736;15.666;2024-02-15T00:37:45;99189.97;;;2.93;100.00
55217;BME280;41086;46.736;15.666;2024-02-15T00:40:12;99196.50;;;3.11;100.00
55217;BME280;41086;46.736;15.666;2024-02-15T00:42:39;99186.56;;;3.24;100.00
55217;BME280;41086;46.736;15.666;2024-02-15T00:45:06;99197.22;;;3.18;100.00
55217;BME280;41086;46.736;15.666;2024-02-15T00:47:38;99185.53;;;2.97;100.00
55217;BME280;41086;46.736;15.666;2024-02-15T00:50:09;99193.50;;;2.94;100.00
55217;BME280;41086;46.736;15.666;2024-02-15T00:52:36;99176.66;;;2.70;100.00
55217;BME280;41086;46.736;15.666;2024-02-15T00:55:04;99192.03;;;2.82;100.00
55217;BME280;41086;46.736;15.666;2024-02-15T00:57:30;99197.16;;;2.86;100.00
55217;BME280;41086;46.736;15.666;2024-02-15T00:59:58;99189.41;;;2.82;100.00
55217;BME280;41086;46.736;15.666;2024-02-15T01:02:26;99187.00;;;2.74;100.00
55217;BME280;41086;46.736;15.666;2024-02-15T01:04:54;99194.31;;;2.61;100.00
55217;BME280;41086;46.736;15.666;2024-02-15T01:07:24;99190.88;;;2.58;100.00
55217;BME280;41086;46.736;15.666;2024-02-15T01:09:54;99193.47;;;2.61;100.00
55217;BME280;41086;46.736;15.666;2024-02-15T01:12:20;99191.81;;;2.91;100.00
55217;BME280;41086;46.736;15.666;2024-02-15T01:14:47;99188.63;;;2.78;100.00
55217;BME280;41086;46.736;15.666;2024-02-15T01:17:14;99185.53;;;2.62;100.00
55217;BME280;41086;46.736;15.666;2024-02-15T01:19:42;99179.06;;;2.43;100.00
55217;BME280;41086;46.736;15.666;2024-02-15T01:22:09;99186.81;;;2.48;100.00
55217;BME280;41086;46.736;15.666;2024-02-15T01:24:35;99179.81;;;2.48;100.00
55217;BME280;41086;46.736;15.666;2024-02-15T01:27:02;99154.19;;;2.61;100.00
55217;BME280;41086;46.736;15.666;2024-02-15T01:29:29;99165.34;;;2.67;100.00
55217;BME280;41086;46.736;15.666;2024-02-15T01:31:56;99170.66;;;2.66;100.00
55217;BME280;41086;46.736;15.666;2024-02-15T01:34:23;99162.41;;;2.47;100.00
55217;BME280;41086;46.736;15.666;2024-02-15T01:36:50;99174.81;;;2.39;100.00
55217;BME280;41086;46.736;15.666;2024-02-15T01:39:17;99175.25;;;2.20;100.00
55217;BME280;41086;46.736;15.666;2024-02-15T01:41:47;99176.44;;;2.07;100.00
55217;BME280;41086;46.736;15.666;2024-02-15T01:44:18;99174.19;;;1.90;100.00
55217;BME280;41086;46.736;15.666;2024-02-15T01:46:49;99170.59;;;1.96;100.00
55217;BME280;41086;46.736;15.666;2024-02-15T01:49:16;99181.44;;;1.77;100.00
55217;BME280;41086;46.736;15.666;2024-02-15T01:51:44;99174.38;;;1.83;100.00
55217;BME280;41086;46.736;15.666;2024-02-15T01:54:13;99168.34;;;2.16;100.00
55217;BME280;41086;46.736;15.666;2024-02-15T01:56:40;99180.22;;;2.67;100.00
55217;BME280;41086;46.736;15.666;2024-02-15T01:59:07;99168.91;;;2.99;100.00
55217;BME280;41086;46.736;15.666;2024-02-15T02:01:34;99169.06;;;3.26;100.00
55217;BME280;41086;46.736;15.666;2024-02-15T02:04:01;99159.25;;;3.62;100.00
55217;BME280;41086;46.736;15.666;2024-02-15T02:06:30;99154.09;;;3.29;100.00
55217;BME280;41086;46.736;15.666;2024-02-15T02:08:58;99140.22;;;3.26;100.00
55217;BME280;41086;46.736;15.666;2024-02-15T02:11:25;99158.19;;;3.40;100.00
55217;BME280;41086;46.736;15.666;2024-02-15T02:13:52;99157.38;;;3.67;100.00
55217;BME280;41086;46.736;15.666;2024-02-15T02:16:29;99153.50;;;3.79;100.00
55217;BME280;41086;46.736;15.666;2024-02-15T02:18:58;99152.63;;;3.80;100.00
55217;BME280;41086;46.736;15.666;2024-02-15T02:21:26;99152.63;;;3.80;100.00
55217;BME280;41086;46.736;15.666;2024-02-15T02:23:55;99155.59;;;3.68;100.00
55217;BME280;41086;46.736;15.666;2024-02-15T02:26:23;99155.25;;;3.80;100.00
55217;BME280;41086;46.736;15.666;2024-02-15T02:28:50;99158.59;;;4.12;100.00
55217;BME280;41086;46.736;15.666;2024-02-15T02:31:20;99167.81;;;4.25;100.00
55217;BME280;41086;46.736;15.666;2024-02-15T02:33:52;99160.97;;;4.21;100.00
55217;BME280;41086;46.736;15.666;2024-02-15T02:36:20;99154.19;;;4.14;100.00
55217;BME280;41086;46.736;15.666;2024-02-15T02:38:46;99153.53;;;4.07;100.00
55217;BME280;41086;46.736;15.666;2024-02-15T02:41:16;99160.06;;;4.20;100.00
55217;BME280;41086;46.736;15.666;2024-02-15T02:43:45;99156.28;;;4.03;100.00
55217;BME280;41086;46.736;15.666;2024-02-15T02:46:13;99160.19;;;4.17;100.00
55217;BME280;41086;46.736;15.666;2024-02-15T02:48:39;99158.94;;;4.01;100.00
55217;BME280;41086;46.736;15.666;2024-02-15T02:51:07;99158.59;;;4.12;100.00
55217;BME280;41086;46.736;15.666;2024-02-15T02:53:34;99151.94;;;4.02;100.00
55217;BME280;41086;46.736;15.666;2024-02-15T02:56:01;99144.03;;;4.03;100.00
55217;BME280;41086;46.736;15.666;2024-02-15T02:58:28;99155.75;;;4.19;100.00
55217;BME280;41086;46.736;15.666;2024-02-15T03:00:55;99152.22;;;3.92;100.00
55217;BME280;41086;46.736;15.666;2024-02-15T03:03:24;99147.19;;;3.86;100.00
55217;BME280;41086;46.736;15.666;2024-02-15T03:05:51;99150.84;;;3.51;100.00
55217;BME280;41086;46.736;15.666;2024-02-15T03:08:18;99150.63;;;3.29;100.00
55217;BME280;41086;46.736;15.666;2024-02-15T03:10:45;99145.44;;;2.95;100.00
55217;BME280;41086;46.736;15.666;2024-02-15T03:13:11;99144.25;;;3.06;100.00
55217;BME280;41086;46.736;15.666;2024-02-15T03:15:38;99157.03;;;2.86;100.00
55217;BME280;41086;46.736;15.666;2024-02-15T03:18:05;99150.19;;;2.46;100.00
55217;BME280;41086;46.736;15.666;2024-02-15T03:20:37;99148.66;;;2.39;100.00
55217;BME280;41086;46.736;15.666;2024-02-15T03:23:04;99136.09;;;2.52;100.00
55217;BME280;41086;46.736;15.666;2024-02-15T03:25:31;99146.44;;;2.91;100.00
55217;BME280;41086;46.736;15.666;2024-02-15T03:27:59;99149.63;;;3.02;100.00
55217;BME280;41086;46.736;15.666;2024-02-15T03:30:31;99145.72;;;2.85;100.00
55217;BME280;41086;46.736;15.666;2024-02-15T03:32:58;99146.19;;;3.00;100.00
55217;BME280;41086;46.736;15.666;2024-02-15T03:35:25;99147.31;;;2.91;100.00
55217;BME280;41086;46.736;15.666;2024-02-15T03:37:53;99136.53;;;3.02;100.00
55217;BME280;41086;46.736;15.666;2024-02-15T03:40:21;99123.88;;;3.18;100.00
55217;BME280;41086;46.736;15.666;2024-02-15T03:42:48;99138.88;;;3.42;100.00
55217;BME280;41086;46.736;15.666;2024-02-15T03:45:17;99133.00;;;3.34;100.00
55217;BME280;41086;46.736;15.666;2024-02-15T03:47:44;99144.66;;;3.24;100.00
55217;BME280;41086;46.736;15.666;2024-02-15T03:50:12;99153.47;;;3.20;100.00
55217;BME280;41086;46.736;15.666;2024-02-15T03:52:42;99151.69;;;3.22;100.00
55217;BME280;41086;46.736;15.666;2024-02-15T03:55:08;99135.97;;;3.51;100.00
55217;BME280;41086;46.736;15.666;2024-02-15T03:57:38;99132.50;;;3.81;100.00
55217;BME280;41086;46.736;15.666;2024-02-15T04:00:08;99134.00;;;3.88;100.00
55217;BME280;41086;46.736;15.666;2024-02-15T04:02:37;99138.88;;;3.72;100.00
55217;BME280;41086;46.736;15.666;2024-02-15T04:05:07;99124.16;;;3.66;100.00
55217;BME280;41086;46.736;15.666;2024-02-15T04:07:35;99138.97;;;3.97;100.00
55217;BME280;41086;46.736;15.666;2024-02-15T04:10:04;99143.53;;;4.18;100.00
55217;BME280;41086;46.736;15.666;2024-02-15T04:12:32;99143.97;;;4.31;100.00
55217;BME280;41086;46.736;15.666;2024-02-15T04:14:59;99145.50;;;4.38;100.00
55217;BME280;41086;46.736;15.666;2024-02-15T04:17:40;99152.28;;;4.46;100.00
55217;BME280;41086;46.736;15.666;2024-02-15T04:20:09;99157.28;;;4.27;100.00
55217;BME280;41086;46.736;15.666;2024-02-15T04:22:38;99134.16;;;4.11;100.00
55217;BME280;41086;46.736;15.666;2024-02-15T04:25:06;99135.81;;;4.40;100.00
55217;BME280;41086;46.736;15.666;2024-02-15T04:27:33;99139.09;;;4.47;100.00
55217;BME280;41086;46.736;15.666;2024-02-15T04:30:01;99138.13;;;4.50;100.00
55217;BME280;41086;46.736;15.666;2024-02-15T04:32:29;99119.06;;;4.44;100.00
55217;BME280;41086;46.736;15.666;2024-02-15T04:35:00;99128.50;;;4.50;100.00
55217;BME280;41086;46.736;15.666;2024-02-15T04:37:28;99132.66;;;4.56;100.00
55217;BME280;41086;46.736;15.666;2024-02-15T04:39:55;99126.88;;;4.46;100.00
55217;BME280;41086;46.736;15.666;2024-02-15T04:42:23;99131.56;;;4.10;100.00
55217;BME280;41086;46.736;15.666;2024-02-15T04:44:53;99128.19;;;3.78;100.00
55217;BME280;41086;46.736;15.666;2024-02-15T04:47:20;99124.97;;;3.70;100.00
55217;BME280;41086;46.736;15.666;2024-02-15T04:49:47;99131.41;;;3.58;100.00
55217;BME280;41086;46.736;15.666;2024-02-15T04:52:14;99121.31;;;3.74;100.00
55217;BME280;41086;46.736;15.666;2024-02-15T04:54:41;99129.13;;;4.04;100.00
55217;BME280;41086;46.736;15.666;2024-02-15T04:57:08;99133.63;;;4.00;100.00
55217;BME280;41086;46.736;15.666;2024-02-15T04:59:38;99133.47;;;3.76;100.00
55217;BME280;41086;46.736;15.666;2024-02-15T05:02:06;99134.31;;;3.77;100.00
55217;BME280;41086;46.736;15.666;2024-02-15T05:04:36;99124.09;;;3.97;100.00
55217;BME280;41086;46.736;15.666;2024-02-15T05:07:03;99130.75;;;3.80;100.00
55217;BME280;41086;46.736;15.666;2024-02-15T05:09:30;99135.56;;;3.65;100.00
55217;BME280;41086;46.736;15.666;2024-02-15T05:11:59;99137.88;;;3.46;100.00
55217;BME280;41086;46.736;15.666;2024-02-15T05:14:26;99140.38;;;3.51;100.00
55217;BME280;41086;46.736;15.666;2024-02-15T05:16:53;99135.38;;;3.71;100.00
55217;BME280;41086;46.736;15.666;2024-02-15T05:19:20;99130.81;;;3.78;100.00
55217;BME280;41086;46.736;15.666;2024-02-15T05:21:47;99142.44;;;3.69;100.00
55217;BME280;41086;46.736;15.666;2024-02-15T05:24:14;99143.91;;;4.06;100.00
55217;BME280;41086;46.736;15.666;2024-02-15T05:26:44;99136.91;;;4.35;100.00
55217;BME280;41086;46.736;15.666;2024-02-15T05:29:13;99151.75;;;4.61;100.00
55217;BME280;41086;46.736;15.666;2024-02-15T05:31:40;99135.16;;;4.34;100.00
55217;BME280;41086;46.736;15.666;2024-02-15T05:34:10;99141.34;;;4.31;100.00
55217;BME280;41086;46.736;15.666;2024-02-15T05:36:41;99128.72;;;4.69;100.00
55217;BME280;41086;46.736;15.666;2024-02-15T05:39:10;99116.72;;;4.87;100.00
55217;BME280;41086;46.736;15.666;2024-02-15T05:41:38;99138.06;;;5.03;100.00
55217;BME280;41086;46.736;15.666;2024-02-15T05:44:06;99134.91;;;4.68;100.00
55217;BME280;41086;46.736;15.666;2024-02-15T05:46:34;99132.50;;;4.35;100.00
55217;BME280;41086;46.736;15.666;2024-02-15T05:49:06;99133.16;;;4.15;100.00
55217;BME280;41086;46.736;15.666;2024-02-15T05:51:36;99133.31;;;4.09;100.00
55217;BME280;41086;46.736;15.666;2024-02-15T05:54:04;99140.69;;;3.98;100.00
55217;BME280;41086;46.736;15.666;2024-02-15T05:56:32;99148.25;;;3.79;100.00
55217;BME280;41086;46.736;15.666;2024-02-15T05:58:59;99156.72;;;3.89;100.00
55217;BME280;41086;46.736;15.666;2024-02-15T06:01:28;99151.91;;;3.75;100.00
55217;BME280;41086;46.736;15.666;2024-02-15T06:03:55;99163.63;;;3.91;100.00
55217;BME280;41086;46.736;15.666;2024-02-15T06:06:22;99150.75;;;3.84;100.00
55217;BME280;41086;46.736;15.666;2024-02-15T06:08:50;99154.78;;;3.66;100.00
55217;BME280;41086;46.736;15.666;2024-02-15T06:11:20;99147.84;;;3.63;100.00
55217;BME280;41086;46.736;15.666;2024-02-15T06:13:48;99161.78;;;3.65;100.00
55217;BME280;41086;46.736;15.666;2024-02-15T06:16:16;99152.34;;;3.60;100.00
55217;BME280;41086;46.736;15.666;2024-02-15T06:18:43;99151.63;;;3.54;100.00
55217;BME280;41086;46.736;15.666;2024-02-15T06:21:10;99149.22;;;3.76;100.00
55217;BME280;41086;46.736;15.666;2024-02-15T06:23:38;99149.13;;;4.08;100.00
55217;BME280;41086;46.736;15.666;2024-02-15T06:26:05;99166.69;;;4.06;100.00
55217;BME280;41086;46.736;15.666;2024-02-15T06:28:33;99159.75;;;4.03;100.00
55217;BME280;41086;46.736;15.666;2024-02-15T06:31:19;99174.44;;;4.09;100.00
55217;BME280;41086;46.736;15.666;2024-02-15T06:34:05;99167.00;;;3.95;100.00
55217;BME280;41086;46.736;15.666;2024-02-15T06:36:56;99177.72;;;3.87;100.00
55217;BME280;41086;46.736;15.666;2024-02-15T06:39:42;99176.59;;;3.96;100.00
55217;BME280;41086;46.736;15.666;2024-02-15T06:42:14;99174.41;;;4.10;100.00
55217;BME280;41086;46.736;15.666;2024-02-15T06:44:44;99172.94;;;4.28;100.00
55217;BME280;41086;46.736;15.666;2024-02-15T06:47:11;99173.41;;;4.14;100.00
55217;BME280;41086;46.736;15.666;2024-02-15T06:49:40;99172.78;;;4.34;100.00
55217;BME280;41086;46.736;15.666;2024-02-15T06:52:08;99170.09;;;4.62;100.00
55217;BME280;41086;46.736;15.666;2024-02-15T06:54:35;99171.66;;;4.93;100.00
55217;BME280;41086;46.736;15.666;2024-02-15T06:57:02;99186.91;;;5.08;100.00
55217;BME280;41086;46.736;15.666;2024-02-15T06:59:32;99175.06;;;5.22;100.00
55217;BME280;41086;46.736;15.666;2024-02-15T07:02:02;99185.00;;;5.37;100.00
55217;BME280;41086;46.736;15.666;2024-02-15T07:04:37;99173.03;;;5.28;100.00
55217;BME280;41086;46.736;15.666;2024-02-15T07:07:04;99190.13;;;5.17;100.00
55217;BME280;41086;46.736;15.666;2024-02-15T07:09:31;99184.53;;;5.01;100.00
55217;BME280;41086;46.736;15.666;2024-02-15T07:11:59;99192.63;;;4.95;100.00
55217;BME280;41086;46.736;15.666;2024-02-15T07:14:26;99188.72;;;4.81;100.00
55217;BME280;41086;46.736;15.666;2024-02-15T07:16:55;99194.97;;;4.77;100.00
55217;BME280;41086;46.736;15.666;2024-02-15T07:19:25;99192.91;;;5.12;100.00
55217;BME280;41086;46.736;15.666;2024-02-15T07:21:55;99175.53;;;5.33;100.00
55217;BME280;41086;46.736;15.666;2024-02-15T07:24:23;99196.00;;;5.23;100.00
55217;BME280;41086;46.736;15.666;2024-02-15T07:26:54;99195.88;;;5.03;100.00
55217;BME280;41086;46.736;15.666;2024-02-15T07:29:23;99195.75;;;5.06;100.00
55217;BME280;41086;46.736;15.666;2024-02-15T07:31:50;99190.31;;;5.36;100.00
55217;BME280;41086;46.736;15.666;2024-02-15T07:34:17;99172.03;;;5.32;100.00
55217;BME280;41086;46.736;15.666;2024-02-15T07:36:44;99192.50;;;5.71;100.00
55217;BME280;41086;46.736;15.666;2024-02-15T07:39:12;99176.09;;;5.41;100.00
55217;BME280;41086;46.736;15.666;2024-02-15T07:41:45;99192.56;;;5.70;100.00
55217;BME280;41086;46.736;15.666;2024-02-15T07:44:12;99180.66;;;5.83;100.00
55217;BME280;41086;46.736;15.666;2024-02-15T07:46:39;99193.31;;;5.73;100.00
55217;BME280;41086;46.736;15.666;2024-02-15T07:49:06;99201.13;;;6.00;100.00
55217;BME280;41086;46.736;15.666;2024-02-15T07:51:35;99197.00;;;6.15;98.49
55217;BME280;41086;46.736;15.666;2024-02-15T07:54:02;99204.47;;;6.70;94.82
55217;BME280;41086;46.736;15.666;2024-02-15T07:56:30;99167.59;;;7.10;93.91
55217;BME280;41086;46.736;15.666;2024-02-15T07:58:56;99197.16;;;7.58;91.39
55217;BME280;41086;46.736;15.666;2024-02-15T08:01:23;99202.84;;;7.68;89.90
55217;BME280;41086;46.736;15.666;2024-02-15T08:03:52;99179.84;;;7.90;89.08
55217;BME280;41086;46.736;15.666;2024-02-15T08:06:21;99180.41;;;8.16;86.76
55217;BME280;41086;46.736;15.666;2024-02-15T08:08:52;99168.78;;;8.39;85.22
55217;BME280;41086;46.736;15.666;2024-02-15T08:11:20;99179.00;;;8.64;83.75
55217;BME280;41086;46.736;15.666;2024-02-15T08:13:47;99177.44;;;8.95;82.13
55217;BME280;41086;46.736;15.666;2024-02-15T08:16:18;99163.34;;;9.12;81.70
55217;BME280;41086;46.736;15.666;2024-02-15T08:18:45;99163.50;;;9.26;80.11
55217;BME280;41086;46.736;15.666;2024-02-15T08:21:15;99155.75;;;9.39;80.81
55217;BME280;41086;46.736;15.666;2024-02-15T08:23:42;99161.25;;;9.51;79.48
55217;BME280;41086;46.736;15.666;2024-02-15T08:26:10;99163.69;;;9.72;78.64
55217;BME280;41086;46.736;15.666;2024-02-15T08:28:40;99180.72;;;10.15;77.68
55217;BME280;41086;46.736;15.666;2024-02-15T08:31:07;99183.97;;;10.36;73.82
55217;BME280;41086;46.736;15.666;2024-02-15T08:33:35;99186.44;;;10.39;73.53
55217;BME280;41086;46.736;15.666;2024-02-15T08:36:04;99191.31;;;10.63;71.01
55217;BME280;41086;46.736;15.666;2024-02-15T08:38:31;99175.41;;;10.47;73.55
55217;BME280;41086;46.736;15.666;2024-02-15T08:40:58;99192.75;;;10.53;71.38
55217;BME280;41086;46.736;15.666;2024-02-15T08:43:24;99158.22;;;10.23;72.75
55217;BME280;41086;46.736;15.666;2024-02-15T08:45:51;99180.13;;;10.10;69.72
55217;BME280;41086;46.736;15.666;2024-02-15T08:48:19;99171.88;;;9.67;73.03
55217;BME280;41086;46.736;15.666;2024-02-15T08:50:46;99163.16;;;9.65;74.38
55217;BME280;41086;46.736;15.666;2024-02-15T08:53:13;99186.94;;;9.98;72.28
55217;BME280;41086;46.736;15.666;2024-02-15T08:55:42;99181.31;;;9.89;72.34
55217;BME280;41086;46.736;15.666;2024-02-15T08:58:08;99182.44;;;10.48;71.77
55217;BME280;41086;46.736;15.666;2024-02-15T09:00:36;99180.91;;;10.28;73.84
55217;BME280;41086;46.736;15.666;2024-02-15T09:03:07;99159.00;;;10.09;73.64
55217;BME280;41086;46.736;15.666;2024-02-15T09:05:34;99171.69;;;10.35;72.44
55217;BME280;41086;46.736;15.666;2024-02-15T09:08:02;99164.53;;;10.68;71.60
55217;BME280;41086;46.736;15.666;2024-02-15T09:10:31;99154.28;;;10.92;70.83
55217;BME280;41086;46.736;15.666;2024-02-15T09:12:58;99153.03;;;11.27;68.52
55217;BME280;41086;46.736;15.666;2024-02-15T09:15:25;99155.94;;;12.09;65.35
55217;BME280;41086;46.736;15.666;2024-02-15T09:17:51;99156.81;;;12.63;64.89
55217;BME280;41086;46.736;15.666;2024-02-15T09:20:21;99154.50;;;13.37;61.56
55217;BME280;41086;46.736;15.666;2024-02-15T09:22:51;99151.41;;;13.82;57.53
55217;BME280;41086;46.736;15.666;2024-02-15T09:25:19;99158.25;;;13.60;58.20
55217;BME280;41086;46.736;15.666;2024-02-15T09:27:46;99159.38;;;13.18;59.13
55217;BME280;41086;46.736;15.666;2024-02-15T09:30:13;99161.13;;;12.79;55.47
55217;BME280;41086;46.736;15.666;2024-02-15T09:32:43;99158.06;;;12.58;57.41
55217;BME280;41086;46.736;15.666;2024-02-15T09:35:11;99150.38;;;12.80;56.53
55217;BME280;41086;46.736;15.666;2024-02-15T09:37:46;99145.47;;;13.65;52.19
55217;BME280;41086;46.736;15.666;2024-02-15T09:40:17;99144.16;;;14.45;53.46
55217;BME280;41086;46.736;15.666;2024-02-15T09:42:46;99141.13;;;14.49;50.65
55217;BME280;41086;46.736;15.666;2024-02-15T09:45:14;99134.56;;;14.18;52.08
55217;BME280;41086;46.736;15.666;2024-02-15T09:47:45;99139.28;;;13.39;47.64
55217;BME280;41086;46.736;15.666;2024-02-15T09:50:13;99138.03;;;12.79;52.64
55217;BME280;41086;46.736;15.666;2024-02-15T09:52:45;99149.56;;;12.93;53.20
55217;BME280;41086;46.736;15.666;2024-02-15T09:55:14;99132.28;;;13.38;54.05
55217;BME280;41086;46.736;15.666;2024-02-15T09:57:47;99143.97;;;13.61;53.84
55217;BME280;41086;46.736;15.666;2024-02-15T10:00:15;99139.13;;;14.16;49.53
55217;BME280;41086;46.736;15.666;2024-02-15T10:02:46;99133.41;;;14.81;50.30
55217;BME280;41086;46.736;15.666;2024-02-15T10:05:13;99131.41;;;14.61;49.43
55217;BME280;41086;46.736;15.666;2024-02-15T10:07:41;99127.41;;;14.91;49.87
55217;BME280;41086;46.736;15.666;2024-02-15T10:10:18;99120.69;;;15.43;48.30
55217;BME280;41086;46.736;15.666;2024-02-15T10:12:47;99132.38;;;16.42;47.58
55217;BME280;41086;46.736;15.666;2024-02-15T10:15:27;99134.06;;;17.28;42.88
55217;BME280;41086;46.736;15.666;2024-02-15T10:18:00;99127.97;;;17.47;41.47
55217;BME280;41086;46.736;15.666;2024-02-15T10:20:27;99125.81;;;17.71;42.12
55217;BME280;41086;46.736;15.666;2024-02-15T10:25:39;99119.31;;;17.95;42.36
55217;BME280;41086;46.736;15.666;2024-02-15T10:28:08;99124.88;;;17.72;40.69
55217;BME280;41086;46.736;15.666;2024-02-15T10:30:40;99124.13;;;18.01;40.91
55217;BME280;41086;46.736;15.666;2024-02-15T10:33:17;99119.34;;;17.43;41.41
55217;BME280;41086;46.736;15.666;2024-02-15T10:35:46;99113.25;;;17.62;42.05
55217;BME280;41086;46.736;15.666;2024-02-15T10:38:14;99113.06;;;17.85;41.99
55217;BME280;41086;46.736;15.666;2024-02-15T10:40:46;99109.66;;;17.83;40.88
55217;BME280;41086;46.736;15.666;2024-02-15T10:43:15;99111.91;;;17.26;40.93
55217;BME280;41086;46.736;15.666;2024-02-15T10:45:44;99106.03;;;16.37;42.01
55217;BME280;41086;46.736;15.666;2024-02-15T10:48:12;99102.13;;;16.41;43.53
55217;BME280;41086;46.736;15.666;2024-02-15T10:50:40;99091.22;;;17.07;43.41
55217;BME280;41086;46.736;15.666;2024-02-15T10:55:53;99090.53;;;16.52;43.31
55217;BME280;41086;46.736;15.666;2024-02-15T10:58:26;99082.03;;;16.79;41.93
55217;BME280;41086;46.736;15.666;2024-02-15T11:00:55;99072.91;;;16.81;43.29
55217;BME280;41086;46.736;15.666;2024-02-15T11:03:27;99083.53;;;17.14;42.71
55217;BME280;41086;46.736;15.666;2024-02-15T11:06:00;99081.97;;;17.11;42.83
55217;BME280;41086;46.736;15.666;2024-02-15T11:08:27;99083.63;;;17.33;42.84
55217;BME280;41086;46.736;15.666;2024-02-15T11:10:55;99076.59;;;17.11;43.92
55217;BME280;41086;46.736;15.666;2024-02-15T11:13:26;99080.31;;;17.20;43.13
55217;BME280;41086;46.736;15.666;2024-02-15T11:15:54;99058.94;;;17.30;41.99
55217;BME280;41086;46.736;15.666;2024-02-15T11:18:43;99065.94;;;17.52;42.17
55217;BME280;41086;46.736;15.666;2024-02-15T11:21:54;99064.56;;;17.57;40.00
55217;BME280;41086;46.736;15.666;2024-02-15T11:24:27;99061.88;;;17.57;39.87
55217;BME280;41086;46.736;15.666;2024-02-15T11:27:00;99062.44;;;17.61;39.56
55217;BME280;41086;46.736;15.666;2024-02-15T11:32:43;99054.13;;;17.64;39.10
55217;BME280;41086;46.736;15.666;2024-02-15T11:35:19;99057.69;;;17.64;40.12
55217;BME280;41086;46.736;15.666;2024-02-15T11:40:18;99058.19;;;17.58;40.74
55217;BME280;41086;46.736;15.666;2024-02-15T11:42:46;99054.13;;;17.54;42.74
55217;BME280;41086;46.736;15.666;2024-02-15T11:45:16;99037.88;;;17.56;41.86
55217;BME280;41086;46.736;15.666;2024-02-15T11:47:50;99034.69;;;17.62;41.52
55217;BME280;41086;46.736;15.666;2024-02-15T11:50:18;99040.00;;;17.52;41.14
55217;BME280;41086;46.736;15.666;2024-02-15T11:52:48;99040.66;;;17.44;41.10
55217;BME280;41086;46.736;15.666;2024-02-15T11:55:22;99031.63;;;17.36;42.10
55217;BME280;41086;46.736;15.666;2024-02-15T11:57:59;99014.75;;;17.14;42.36
55217;BME280;41086;46.736;15.666;2024-02-15T12:00:43;99030.25;;;17.20;43.38
55217;BME280;41086;46.736;15.666;2024-02-15T12:03:29;99015.06;;;17.21;43.11
55217;BME280;41086;46.736;15.666;2024-02-15T12:06:30;99010.13;;;17.26;43.83
55217;BME280;41086;46.736;15.666;2024-02-15T12:09:20;99018.34;;;17.34;43.53
55217;BME280;41086;46.736;15.666;2024-02-15T12:12:06;99021.91;;;17.44;43.41
55217;BME280;41086;46.736;15.666;2024-02-15T12:15:01;99017.31;;;17.25;42.55
55217;BME280;41086;46.736;15.666;2024-02-15T12:17:48;99018.59;;;17.21;43.34
55217;BME280;41086;46.736;15.666;2024-02-15T12:20:34;99009.75;;;17.31;43.80
55217;BME280;41086;46.736;15.666;2024-02-15T12:23:02;99015.97;;;17.41;43.88
55217;BME280;41086;46.736;15.666;2024-02-15T12:25:29;99016.09;;;17.39;42.91
55217;BME280;41086;46.736;15.666;2024-02-15T12:28:00;99013.59;;;17.47;43.11
55217;BME280;41086;46.736;15.666;2024-02-15T12:30:33;99014.19;;;17.51;42.63
55217;BME280;41086;46.736;15.666;2024-02-15T12:33:10;99010.28;;;17.65;43.56
55217;BME280;41086;46.736;15.666;2024-02-15T12:35:38;98995.00;;;17.56;43.02
55217;BME280;41086;46.736;15.666;2024-02-15T12:38:05;98996.72;;;17.66;42.76
55217;BME280;41086;46.736;15.666;2024-02-15T12:40:34;98999.19;;;17.79;42.46
55217;BME280;41086;46.736;15.666;2024-02-15T12:43:01;98994.19;;;17.65;42.42
55217;BME280;41086;46.736;15.666;2024-02-15T12:45:28;98991.97;;;17.70;43.45
55217;BME280;41086;46.736;15.666;2024-02-15T12:47:56;98985.88;;;17.68;42.50
55217;BME280;41086;46.736;15.666;2024-02-15T12:50:29;98994.56;;;17.50;41.94
55217;BME280;41086;46.736;15.666;2024-02-15T12:52:56;98990.00;;;17.32;42.15
55217;BME280;41086;46.736;15.666;2024-02-15T12:55:30;98984.56;;;17.12;41.70
55217;BME280;41086;46.736;15.666;2024-02-15T12:58:05;98988.84;;;17.24;42.93
55217;BME280;41086;46.736;15.666;2024-02-15T13:00:36;98980.59;;;17.37;42.58
55217;BME280;41086;46.736;15.666;2024-02-15T13:03:08;98977.94;;;17.47;43.23
55217;BME280;41086;46.736;15.666;2024-02-15T13:05:38;98977.66;;;17.50;42.75
55217;BME280;41086;46.736;15.666;2024-02-15T13:08:07;98972.16;;;17.61;42.93
55217;BME280;41086;46.736;15.666;2024-02-15T13:10:40;98959.78;;;17.70;42.71
55217;BME280;41086;46.736;15.666;2024-02-15T13:13:07;98968.28;;;17.75;42.84